Airfield :
LOGIN :

Register | Disclaimer

   EN    FR    IT 

 










Legend :    VFR   Marginal VFR   IFR   Intensive IFR   Very Intensive IFR
Visi :
Ceiling :
>= 8 km
>= 3000ft
5 to 8 km
1000 to 3000 ft
1500m to 5 km
500 to 1000 ft
800 to 1500m
200 to 500 ft
< 800m
< 200 ft
Symbols :   Thunderstorms  Fog  Heavy snow  Heavy precipitations  Wind > 20 kt
SIGMETs :     Misc.  Thunderstorms  Icing  Turbulence  Mountain Waves  Volcanic Ashes






- Airport Elevation : 28 ft
- IATA code : SOZ


LFKS - Solenzara

CURRENT METAR :
  • 130530Z AUTO VRB02KT 9999 SCT054/// BKN066/// BKN150/// ///CB 09/07 Q0994

EXPIRED METARs :
  • 130500Z AUTO VRB06KT 9999 -DZ SCT048/// BKN054/// BKN076/// ///TCU 09/07 Q0994
  • 130430Z AUTO 31004KT 260V340 9999 -RA FEW047/// BKN054/// OVC074/// ///CB 08/07 Q0994
  • 130400Z AUTO 34003KT 280V060 9999 BKN046/// OVC054/// ///CB 08/07 Q0995
  • 130330Z AUTO 33004KT 270V040 9999 -RA BKN058/// OVC076/// ///CB 08/07 Q0995
  • 130300Z AUTO 28004KT 260V330 9999 RA BKN060/// OVC076/// ///CB 09/07 Q0997

TAF TAF LFKS
Valid from the 12 at 15:00 until the 13 at 15:00 UTC


121400Z 1215/1315 27012KT 9999 SCT030
TEMPO 1215/1221 27015G35KT
TEMPO 1303/1311 4000 RA
BECMG 1309/1311 27015G35KT
TEMPO 1311/1315 27025G45KT 3000 RA BKN030



MET'MAP, your aeronautical weather chart ! - Copyright ORBIFLY December 2007 - Disclaimer

ORBIFLY MET'MAP TEAM :

Programming & Development : Alexandra Zaïnal
Concept & original design : Baudouin d'Aumeries
Assistance for programming : Marc-Olivier Méhu
Technical & hardware support : Manuel Goepfert

Contact : metmap@orbifly.com




SOURCES & CREDITS :

   NOAA